createdAt,value
2023-05-15T00:00:52.028Z,98887.13
2023-05-15T00:03:19.966Z,98887.09
2023-05-15T00:05:49.361Z,98887.09
2023-05-15T00:08:17.396Z,98874.53
2023-05-15T00:10:54.118Z,98877.91
2023-05-15T00:13:28.446Z,98872.84
2023-05-15T00:15:56.322Z,98859.47
2023-05-15T00:18:24.327Z,98868.69
2023-05-15T00:20:53.770Z,98871.19
2023-05-15T00:23:21.662Z,98874.53
2023-05-15T00:25:49.461Z,98878.75
2023-05-15T00:28:17.448Z,98877.91
2023-05-15T00:30:45.387Z,98877.88
2023-05-15T00:33:13.513Z,98871.22
2023-05-15T00:35:41.399Z,98881.22
2023-05-15T00:38:10.797Z,98879.56
2023-05-15T00:40:39.606Z,98879.53
2023-05-15T00:43:07.720Z,98874.44
2023-05-15T00:45:41.630Z,98881.94
2023-05-15T00:48:11.152Z,98885.31
2023-05-15T00:50:41.416Z,98876.06
2023-05-15T00:53:11.958Z,98881.91
2023-05-15T00:55:41.613Z,98886.03
2023-05-15T00:58:12.155Z,98881.81
2023-05-15T01:00:40.547Z,98891.00
2023-05-15T01:03:09.501Z,98887.66
2023-05-15T01:05:37.800Z,98885.19
2023-05-15T01:08:18.619Z,98882.66
2023-05-15T01:10:48.995Z,98881.00
2023-05-15T01:13:17.745Z,98860.94
2023-05-15T01:15:45.963Z,98862.63
2023-05-15T01:18:14.042Z,98856.78
2023-05-15T01:20:55.142Z,98869.34
2023-05-15T01:23:34.990Z,98860.19
2023-05-15T01:26:31.493Z,98861.03
2023-05-15T01:29:05.838Z,98855.13
2023-05-15T01:31:36.202Z,98852.63
2023-05-15T01:34:08.022Z,98855.13
2023-05-15T01:36:40.347Z,98850.97
2023-05-15T01:39:09.556Z,98851.00
2023-05-15T01:41:43.697Z,98842.63
2023-05-15T01:44:17.992Z,98842.63
2023-05-15T01:46:50.660Z,98841.78
2023-05-15T01:49:24.764Z,98840.09
2023-05-15T01:51:59.321Z,98827.50
2023-05-15T01:54:29.713Z,98824.16
2023-05-15T01:56:58.637Z,98822.50
2023-05-15T01:59:28.754Z,98814.13
2023-05-15T02:01:58.027Z,98820.84
2023-05-15T02:04:27.251Z,98808.31
2023-05-15T02:06:56.202Z,98800.75
2023-05-15T02:09:25.820Z,98804.13
2023-05-15T02:11:54.759Z,98804.13
2023-05-15T02:14:23.673Z,98804.13
2023-05-15T02:16:53.082Z,98802.44
2023-05-15T02:19:21.050Z,98807.47
2023-05-15T02:21:49.087Z,98804.16
2023-05-15T02:24:17.005Z,98811.69
2023-05-15T02:26:54.410Z,98813.34
2023-05-15T02:29:32.635Z,98812.56
2023-05-15T02:32:15.554Z,98814.22
2023-05-15T02:34:53.434Z,98823.44
2023-05-15T02:37:28.206Z,98822.66
2023-05-15T02:39:59.735Z,98819.28
2023-05-15T02:42:30.424Z,98822.63
2023-05-15T02:44:59.135Z,98816.72
2023-05-15T02:47:30.769Z,98820.03
2023-05-15T02:49:58.992Z,98817.50
2023-05-15T02:52:26.914Z,98805.75
2023-05-15T02:54:54.797Z,98809.06
2023-05-15T02:57:22.688Z,98790.66
2023-05-15T02:59:50.763Z,98810.78
2023-05-15T03:02:18.668Z,98817.50
2023-05-15T03:04:48.341Z,98818.34
2023-05-15T03:07:16.630Z,98817.53
2023-05-15T03:09:44.640Z,98812.56
2023-05-15T03:12:12.890Z,98817.56
2023-05-15T03:14:40.818Z,98815.91
2023-05-15T03:17:09.053Z,98811.72
2023-05-15T03:19:37.024Z,98818.41
2023-05-15T03:22:06.341Z,98800.84
2023-05-15T03:24:34.450Z,98800.84
2023-05-15T03:27:02.360Z,98800.00
2023-05-15T03:29:30.411Z,98795.78
2023-05-15T03:31:58.429Z,98802.50
2023-05-15T03:34:26.413Z,98793.25
2023-05-15T03:36:54.318Z,98792.41
2023-05-15T03:39:23.554Z,98784.03
2023-05-15T03:41:51.608Z,98792.38
2023-05-15T03:44:19.492Z,98794.06
2023-05-15T03:46:48.117Z,98779.00
2023-05-15T03:49:16.091Z,98785.72
2023-05-15T03:51:44.043Z,98784.00
2023-05-15T03:54:11.946Z,98783.19
2023-05-15T03:56:41.366Z,98789.91
2023-05-15T03:59:10.077Z,98780.72
2023-05-15T04:01:47.562Z,98788.22
2023-05-15T04:04:19.120Z,98763.94
2023-05-15T04:06:46.993Z,98781.53
2023-05-15T04:09:14.872Z,98779.88
2023-05-15T04:11:46.722Z,98784.06
2023-05-15T04:14:14.914Z,98771.47
2023-05-15T04:16:42.834Z,98780.69
2023-05-15T04:19:11.355Z,98781.53
2023-05-15T04:21:39.291Z,98784.03
2023-05-15T04:24:09.091Z,98789.06
2023-05-15T04:26:38.011Z,98781.53
2023-05-15T04:29:07.415Z,98779.06
2023-05-15T04:31:35.529Z,98775.69
2023-05-15T04:34:04.388Z,98772.38
2023-05-15T04:36:32.879Z,98774.06
2023-05-15T04:39:00.827Z,98774.88
2023-05-15T04:41:28.680Z,98771.56
2023-05-15T04:43:56.569Z,98762.34
2023-05-15T04:46:25.979Z,98764.84
2023-05-15T04:48:53.938Z,98779.09
2023-05-15T04:51:21.741Z,98779.09
2023-05-15T04:53:49.611Z,98773.25
2023-05-15T04:56:17.473Z,98780.78
2023-05-15T04:58:45.411Z,98772.41
2023-05-15T05:01:13.242Z,98780.78
2023-05-15T05:03:42.828Z,98784.97
2023-05-15T05:06:11.221Z,98777.44
2023-05-15T05:08:39.106Z,98778.28
2023-05-15T05:11:06.972Z,98781.63
2023-05-15T05:13:34.876Z,98783.28
2023-05-15T05:16:03.012Z,98788.34
2023-05-15T05:18:31.323Z,98784.16
2023-05-15T05:21:04.216Z,98784.16
2023-05-15T05:23:32.375Z,98770.75
2023-05-15T05:26:00.318Z,98780.81
2023-05-15T05:28:28.291Z,98789.19
2023-05-15T05:30:56.125Z,98792.53
2023-05-15T05:33:24.014Z,98792.53
2023-05-15T05:35:52.642Z,98799.22
2023-05-15T05:38:21.925Z,98791.69
2023-05-15T05:40:50.947Z,98798.38
2023-05-15T05:43:18.924Z,98795.84
2023-05-15T05:45:46.989Z,98791.66
2023-05-15T05:48:14.956Z,98785.75
2023-05-15T05:50:42.786Z,98800.03
2023-05-15T05:53:10.835Z,98802.50
2023-05-15T05:55:40.076Z,98803.34
2023-05-15T05:58:14.777Z,98801.66
2023-05-15T06:00:52.373Z,98804.16
2023-05-15T06:03:20.628Z,98805.00
2023-05-15T06:05:48.745Z,98809.22
2023-05-15T06:08:16.611Z,98814.25
2023-05-15T06:10:45.980Z,98816.75
2023-05-15T06:13:14.851Z,98807.53
2023-05-15T06:15:43.034Z,98812.53
2023-05-15T06:18:11.231Z,98806.66
2023-05-15T06:20:39.220Z,98800.75
2023-05-15T06:23:07.140Z,98799.06
2023-05-15T06:25:35.071Z,98806.63
2023-05-15T06:28:04.305Z,98804.09
2023-05-15T06:30:32.456Z,98800.75
2023-05-15T06:33:00.757Z,98805.72
2023-05-15T06:35:28.858Z,98803.19
2023-05-15T06:37:58.431Z,98802.31
2023-05-15T06:40:26.915Z,98802.28
2023-05-15T06:42:54.936Z,98797.28
2023-05-15T06:45:24.516Z,98796.44
2023-05-15T06:47:52.607Z,98807.31
2023-05-15T06:50:20.806Z,98798.91
2023-05-15T06:52:48.753Z,98807.31
2023-05-15T06:55:16.592Z,98808.19
2023-05-15T06:57:44.419Z,98809.06
2023-05-15T07:00:13.643Z,98814.09
2023-05-15T07:02:43.728Z,98804.94
2023-05-15T07:05:12.339Z,98818.38
2023-05-15T07:07:40.341Z,98824.25
2023-05-15T07:10:09.791Z,98821.72
2023-05-15T07:12:37.649Z,98825.81
2023-05-15T07:15:06.507Z,98820.78
2023-05-15T07:17:35.136Z,98824.16
2023-05-15T07:20:06.088Z,98817.47
2023-05-15T07:22:38.747Z,98822.56
2023-05-15T07:25:14.561Z,98831.78
2023-05-15T07:27:43.454Z,98832.56
2023-05-15T07:30:12.246Z,98824.19
2023-05-15T07:32:40.370Z,98830.88
2023-05-15T07:35:11.499Z,98834.16
2023-05-15T07:37:39.912Z,98835.06
2023-05-15T07:40:08.908Z,98837.59
2023-05-15T07:42:36.817Z,98837.53
2023-05-15T07:45:05.198Z,98831.56
2023-05-15T07:47:33.167Z,98829.81
2023-05-15T07:50:01.088Z,98838.13
2023-05-15T07:52:30.602Z,98830.50
2023-05-15T07:54:58.409Z,98841.50
2023-05-15T07:57:26.456Z,98847.41
2023-05-15T07:59:54.357Z,98849.19
2023-05-15T08:02:22.309Z,98850.97
2023-05-15T08:04:50.385Z,98857.69
2023-05-15T08:07:18.334Z,98863.59
2023-05-15T08:09:47.599Z,98860.19
2023-05-15T08:12:20.628Z,98866.72
2023-05-15T08:14:50.281Z,98868.28
2023-05-15T08:17:19.105Z,98875.63
2023-05-15T08:19:47.027Z,98873.72
2023-05-15T08:22:15.330Z,98876.81
2023-05-15T08:24:44.095Z,98852.31
2023-05-15T08:27:13.396Z,98853.88
2023-05-15T08:29:41.526Z,98857.28
2023-05-15T08:32:10.158Z,98865.84
2023-05-15T08:34:38.634Z,98867.66
2023-05-15T08:37:07.375Z,98867.84
2023-05-15T08:39:35.312Z,98874.75
2023-05-15T08:42:09.726Z,98871.56
2023-05-15T08:44:39.747Z,98875.84
2023-05-15T08:47:08.374Z,98875.94
2023-05-15T08:49:46.041Z,98882.66
2023-05-15T08:52:14.315Z,98886.03
2023-05-15T08:54:42.222Z,98887.69
2023-05-15T08:57:10.993Z,98893.53
2023-05-15T08:59:40.308Z,98892.63
2023-05-15T09:02:08.771Z,98890.03
2023-05-15T09:04:36.681Z,98895.91
2023-05-15T09:07:04.893Z,98899.25
2023-05-15T09:09:34.135Z,98884.94
2023-05-15T09:12:02.604Z,98890.69
2023-05-15T09:14:30.935Z,98902.19
2023-05-15T09:17:00.470Z,98895.28
2023-05-15T09:19:29.030Z,98893.25
2023-05-15T09:22:16.871Z,98887.78
2023-05-15T09:24:48.123Z,98889.41
2023-05-15T09:27:16.348Z,98888.53
2023-05-15T09:29:44.272Z,98890.00
2023-05-15T09:32:15.866Z,98895.91
2023-05-15T09:34:45.828Z,98892.75
2023-05-15T09:37:29.417Z,98897.22
2023-05-15T09:39:57.750Z,98899.91
2023-05-15T09:42:25.876Z,98894.91
2023-05-15T09:44:53.748Z,98897.03
2023-05-15T09:47:23.481Z,98892.28
2023-05-15T09:49:51.528Z,98897.06
2023-05-15T09:52:20.002Z,98900.22
2023-05-15T09:54:50.270Z,98902.88
2023-05-15T09:57:23.456Z,98899.94
2023-05-15T09:59:51.469Z,98902.13
2023-05-15T10:02:32.174Z,98902.41
2023-05-15T10:05:00.559Z,98905.84
2023-05-15T10:07:29.338Z,98923.56
2023-05-15T10:09:57.416Z,98909.84
2023-05-15T10:12:26.693Z,98914.72
2023-05-15T10:14:57.013Z,98896.31
2023-05-15T10:17:25.064Z,98898.19
2023-05-15T10:19:58.096Z,98898.31
2023-05-15T10:22:29.984Z,98900.88
2023-05-15T10:25:03.763Z,98899.19
2023-05-15T10:27:34.200Z,98889.84
2023-05-15T10:30:03.969Z,98887.97
2023-05-15T10:32:35.000Z,98889.53
2023-05-15T10:35:04.665Z,98886.31
2023-05-15T10:37:33.724Z,98891.56
2023-05-15T10:40:03.234Z,98885.47
2023-05-15T10:42:32.019Z,98888.59
2023-05-15T10:45:02.607Z,98896.94
2023-05-15T10:47:31.634Z,98893.41
2023-05-15T10:49:59.983Z,98889.19
2023-05-15T10:52:29.263Z,98889.13
2023-05-15T10:54:57.235Z,98884.72
2023-05-15T10:57:25.171Z,98877.72
2023-05-15T10:59:53.169Z,98884.22
2023-05-15T11:02:23.427Z,98888.31
2023-05-15T11:04:56.703Z,98894.53
2023-05-15T11:07:25.710Z,98886.44
2023-05-15T11:09:56.032Z,98893.09
2023-05-15T11:12:24.682Z,98896.63
2023-05-15T11:15:20.085Z,98885.28
2023-05-15T11:18:03.706Z,98879.25
2023-05-15T11:20:37.182Z,98871.50
2023-05-15T11:23:05.207Z,98881.13
2023-05-15T11:25:36.194Z,98874.13
2023-05-15T11:28:05.485Z,98873.81
2023-05-15T11:30:38.709Z,98875.16
2023-05-15T11:33:09.781Z,98872.09
2023-05-15T11:35:42.127Z,98860.56
2023-05-15T11:38:15.868Z,98884.38
2023-05-15T11:40:49.905Z,98876.16
2023-05-15T11:43:19.841Z,98886.28
2023-05-15T11:45:49.719Z,98892.97
2023-05-15T11:48:18.780Z,98895.97
2023-05-15T11:50:47.485Z,98891.22
2023-05-15T11:53:16.660Z,98893.16
2023-05-15T11:55:45.896Z,98887.78
2023-05-15T11:58:16.672Z,98893.88
2023-05-15T12:00:46.159Z,98887.38
2023-05-15T12:03:18.028Z,98885.63
2023-05-15T12:05:57.566Z,98883.06
2023-05-15T12:08:26.717Z,98897.56
2023-05-15T12:10:54.571Z,98891.00
2023-05-15T12:13:23.834Z,98897.03
2023-05-15T12:15:51.840Z,98893.63
2023-05-15T12:18:19.838Z,98901.94
2023-05-15T12:20:48.263Z,98903.19
2023-05-15T12:23:17.775Z,98907.94
2023-05-15T12:25:48.130Z,98898.97
2023-05-15T12:28:16.511Z,98906.22
2023-05-15T12:30:46.250Z,98903.34
2023-05-15T12:33:15.035Z,98899.94
2023-05-15T12:35:44.690Z,98893.47
2023-05-15T12:38:16.610Z,98909.78
2023-05-15T12:40:45.472Z,98914.09
2023-05-15T12:43:14.557Z,98902.28
2023-05-15T12:45:43.032Z,98904.44
2023-05-15T12:48:16.200Z,98920.13
2023-05-15T12:50:46.906Z,98908.09
2023-05-15T12:53:16.150Z,98903.69
2023-05-15T12:55:46.434Z,98891.63
2023-05-15T12:58:18.574Z,98893.56
2023-05-15T13:00:48.013Z,98903.19
2023-05-15T13:03:21.100Z,98903.31
2023-05-15T13:05:49.294Z,98893.03
2023-05-15T13:08:18.773Z,98885.41
2023-05-15T13:10:48.432Z,98886.28
2023-05-15T13:13:17.673Z,98900.19
2023-05-15T13:15:46.387Z,98895.19
2023-05-15T13:18:17.557Z,98896.59
2023-05-15T13:20:46.829Z,98901.84
2023-05-15T13:23:17.084Z,98898.53
2023-05-15T13:25:45.284Z,98906.31
2023-05-15T13:28:14.142Z,98899.19
2023-05-15T13:30:42.898Z,98897.56
2023-05-15T13:33:12.627Z,98901.16
2023-05-15T13:35:43.033Z,98899.56
2023-05-15T13:38:12.040Z,98891.41
2023-05-15T13:40:40.395Z,98898.28
2023-05-15T13:43:08.345Z,98906.09
2023-05-15T13:45:36.428Z,98907.22
2023-05-15T13:48:04.855Z,98921.72
2023-05-15T13:50:32.782Z,98919.38
2023-05-15T13:53:02.176Z,98905.75
2023-05-15T13:55:30.186Z,98915.00
2023-05-15T13:57:58.369Z,98913.22
2023-05-15T14:00:26.543Z,98909.09
2023-05-15T14:02:54.644Z,98916.00
2023-05-15T14:05:22.534Z,98915.38
2023-05-15T14:07:50.556Z,98904.22
2023-05-15T14:10:19.879Z,98905.50
2023-05-15T14:12:47.699Z,98909.56
2023-05-15T14:15:15.765Z,98906.81
2023-05-15T14:17:44.153Z,98912.25
2023-05-15T14:20:13.047Z,98908.53
2023-05-15T14:22:41.646Z,98911.66
2023-05-15T14:25:10.476Z,98916.06
2023-05-15T14:27:39.833Z,98914.91
2023-05-15T14:30:08.956Z,98914.84
2023-05-15T14:32:36.862Z,98909.47
2023-05-15T14:35:05.535Z,98913.53
2023-05-15T14:37:33.511Z,98908.22
2023-05-15T14:40:01.486Z,98902.72
2023-05-15T14:42:29.540Z,98904.72
2023-05-15T14:44:58.845Z,98911.66
2023-05-15T14:47:28.392Z,98910.09
2023-05-15T14:49:56.558Z,98917.81
2023-05-15T14:52:24.454Z,98916.25
2023-05-15T14:55:04.989Z,98923.00
2023-05-15T14:57:36.953Z,98917.22
2023-05-15T15:00:08.303Z,98923.97
2023-05-15T15:02:36.324Z,98922.22
2023-05-15T15:05:05.308Z,98927.06
2023-05-15T15:08:01.498Z,98925.59
2023-05-15T15:10:29.728Z,98927.22
2023-05-15T15:12:58.091Z,98930.88
2023-05-15T15:15:26.642Z,98931.53
2023-05-15T15:17:54.639Z,98924.22
2023-05-15T15:20:23.112Z,98929.81
2023-05-15T15:22:51.110Z,98934.19
2023-05-15T15:25:21.510Z,98931.81
2023-05-15T15:27:50.542Z,98921.81
2023-05-15T15:30:18.950Z,98932.16
2023-05-15T15:32:47.081Z,98922.56
2023-05-15T15:35:15.009Z,98924.25
2023-05-15T15:37:42.920Z,98922.22
2023-05-15T15:40:11.921Z,98922.09
2023-05-15T15:42:41.244Z,98932.47
2023-05-15T15:45:09.681Z,98935.03
2023-05-15T15:47:37.650Z,98941.97
2023-05-15T15:50:06.238Z,98938.38
2023-05-15T15:52:34.194Z,98943.84
2023-05-15T15:55:02.092Z,98941.59
2023-05-15T15:57:31.197Z,98936.34
2023-05-15T16:00:00.480Z,98941.84
2023-05-15T16:02:29.363Z,98945.72
2023-05-15T16:04:57.294Z,98944.66
2023-05-15T16:07:25.220Z,98953.66
2023-05-15T16:10:00.244Z,98951.16
2023-05-15T16:12:31.951Z,98955.75
2023-05-15T16:15:17.503Z,98951.66
2023-05-15T16:17:52.710Z,98957.75
2023-05-15T16:20:21.906Z,98962.22
2023-05-15T16:22:50.066Z,98957.28
2023-05-15T16:25:18.109Z,98957.44
2023-05-15T16:27:48.648Z,98966.88
2023-05-15T16:30:18.800Z,98967.72
2023-05-15T16:32:48.430Z,98961.66
2023-05-15T16:35:16.656Z,98958.06
2023-05-15T16:37:44.549Z,98960.38
2023-05-15T16:40:13.344Z,98954.47
2023-05-15T16:42:41.456Z,98960.38
2023-05-15T16:45:10.085Z,98961.78
2023-05-15T16:47:41.175Z,98962.63
2023-05-15T16:50:10.041Z,98962.63
2023-05-15T16:52:39.076Z,98965.06
2023-05-15T16:55:07.897Z,98970.13
2023-05-15T16:57:36.054Z,98970.22
2023-05-15T17:00:04.457Z,98976.97
2023-05-15T17:02:33.053Z,98983.75
2023-05-15T17:05:03.224Z,98977.09
2023-05-15T17:07:31.203Z,98975.56
2023-05-15T17:09:59.160Z,98983.28
2023-05-15T17:12:27.078Z,98987.56
2023-05-15T17:14:54.969Z,98991.16
2023-05-15T17:17:23.271Z,98987.97
2023-05-15T17:19:51.283Z,98995.69
2023-05-15T17:22:20.922Z,98999.97
2023-05-15T17:24:51.727Z,99008.38
2023-05-15T17:27:20.741Z,99007.59
2023-05-15T17:29:48.871Z,99008.44
2023-05-15T17:32:17.394Z,99003.41
2023-05-15T17:34:45.945Z,99005.16
2023-05-15T17:37:14.592Z,99009.47
2023-05-15T17:39:43.971Z,99012.91
2023-05-15T17:42:11.803Z,99026.53
2023-05-15T17:44:39.706Z,99014.13
2023-05-15T17:47:08.570Z,99027.59
2023-05-15T17:49:36.710Z,99029.31
2023-05-15T17:52:04.888Z,99035.31
2023-05-15T17:54:32.845Z,99041.22
2023-05-15T17:57:02.278Z,99043.81
2023-05-15T17:59:30.981Z,99043.09
2023-05-15T18:01:59.105Z,99040.69
2023-05-15T18:04:27.279Z,99041.59
2023-05-15T18:06:55.133Z,99039.97
2023-05-15T18:09:24.320Z,99031.59
2023-05-15T18:11:52.713Z,99049.31
2023-05-15T18:14:22.065Z,99046.03
2023-05-15T18:16:49.993Z,99047.75
2023-05-15T18:19:18.155Z,99050.34
2023-05-15T18:21:46.284Z,99058.75
2023-05-15T18:24:14.174Z,99060.44
2023-05-15T18:26:42.110Z,99064.63
2023-05-15T18:29:10.051Z,99061.28
2023-05-15T18:31:39.460Z,99070.56
2023-05-15T18:34:07.538Z,99072.25
2023-05-15T18:36:35.772Z,99073.09
2023-05-15T18:39:03.724Z,99075.63
2023-05-15T18:41:31.876Z,99079.03
2023-05-15T18:43:59.738Z,99077.38
2023-05-15T18:46:28.413Z,99085.78
2023-05-15T18:48:57.844Z,99083.28
2023-05-15T18:51:25.950Z,99079.06
2023-05-15T18:53:53.826Z,99067.38
2023-05-15T18:56:22.232Z,99079.13
2023-05-15T18:58:50.417Z,99083.34
2023-05-15T19:01:18.437Z,99092.59
2023-05-15T19:03:46.415Z,99092.59
2023-05-15T19:06:19.702Z,99097.69
2023-05-15T19:08:48.225Z,99104.41
2023-05-15T19:11:16.104Z,99110.31
2023-05-15T19:13:44.120Z,99105.28
2023-05-15T19:16:12.442Z,99101.06
2023-05-15T19:18:40.840Z,99107.81
2023-05-15T19:21:08.802Z,99104.44
2023-05-15T19:23:38.312Z,99106.13
2023-05-15T19:26:06.266Z,99103.59
2023-05-15T19:28:34.520Z,99105.28
2023-05-15T19:31:04.267Z,99114.53
2023-05-15T19:33:32.184Z,99111.19
2023-05-15T19:36:00.097Z,99112.03
2023-05-15T19:38:28.138Z,99117.91
2023-05-15T19:40:57.442Z,99121.25
2023-05-15T19:43:25.509Z,99124.63
2023-05-15T19:45:53.444Z,99126.31
2023-05-15T19:48:21.421Z,99128.84
2023-05-15T19:50:49.308Z,99143.09
2023-05-15T19:53:17.209Z,99133.03
2023-05-15T19:55:45.185Z,99131.34
2023-05-15T19:58:14.606Z,99129.66
2023-05-15T20:00:42.505Z,99134.69
2023-05-15T20:03:10.432Z,99135.53
2023-05-15T20:05:40.727Z,99133.03
2023-05-15T20:08:08.745Z,99133.03
2023-05-15T20:10:36.620Z,99128.00
2023-05-15T20:13:04.692Z,99121.28
2023-05-15T20:15:35.193Z,99123.75
2023-05-15T20:18:03.167Z,99124.59
2023-05-15T20:20:31.321Z,99127.91
2023-05-15T20:22:59.447Z,99124.59
2023-05-15T20:25:28.923Z,99124.59
2023-05-15T20:27:58.660Z,99129.63
2023-05-15T20:30:28.586Z,99123.78
2023-05-15T20:32:58.167Z,99128.78
2023-05-15T20:35:26.780Z,99138.03
2023-05-15T20:37:56.294Z,99129.63
2023-05-15T20:40:27.003Z,99130.44
2023-05-15T20:42:55.656Z,99140.50
2023-05-15T20:45:24.262Z,99151.34
2023-05-15T20:47:52.210Z,99148.81
2023-05-15T20:50:21.739Z,99149.63
2023-05-15T20:52:49.686Z,99146.31
2023-05-15T20:55:20.114Z,99144.59
2023-05-15T20:57:49.277Z,99152.88
2023-05-15T21:00:18.443Z,99145.28
2023-05-15T21:02:47.429Z,99148.63
2023-05-15T21:05:15.402Z,99151.19
2023-05-15T21:07:44.873Z,99162.94
2023-05-15T21:10:12.917Z,99150.34
2023-05-15T21:12:42.123Z,99165.50
2023-05-15T21:15:11.140Z,99160.47
2023-05-15T21:17:39.182Z,99168.06
2023-05-15T21:20:08.439Z,99158.84
2023-05-15T21:22:36.619Z,99163.00
2023-05-15T21:25:06.737Z,99157.91
2023-05-15T21:27:35.473Z,99158.69
2023-05-15T21:30:03.926Z,99168.72
2023-05-15T21:32:32.105Z,99172.88
2023-05-15T21:35:00.100Z,99167.06
2023-05-15T21:37:28.126Z,99171.28
2023-05-15T21:39:56.057Z,99162.88
2023-05-15T21:42:26.412Z,99161.25
2023-05-15T21:44:54.457Z,99152.88
2023-05-15T21:47:22.480Z,99158.75
2023-05-15T21:49:50.610Z,99162.06
2023-05-15T21:52:18.494Z,99172.94
2023-05-15T21:54:46.664Z,99172.13
2023-05-15T21:57:14.596Z,99175.44
2023-05-15T21:59:43.912Z,99178.81
2023-05-15T22:02:11.951Z,99174.59
2023-05-15T22:04:39.901Z,99166.19
2023-05-15T22:07:07.810Z,99165.34
2023-05-15T22:09:35.742Z,99162.03
2023-05-15T22:12:03.660Z,99165.41
2023-05-15T22:14:31.579Z,99156.13
2023-05-15T22:17:01.529Z,99182.94
2023-05-15T22:19:33.533Z,99186.25
2023-05-15T22:22:01.967Z,99191.25
2023-05-15T22:24:30.098Z,99202.19
2023-05-15T22:26:58.301Z,99201.31
2023-05-15T22:29:26.600Z,99200.50
2023-05-15T22:31:54.567Z,99197.16
2023-05-15T22:34:25.275Z,99203.84
2023-05-15T22:39:22.127Z,99204.56
2023-05-15T22:41:50.567Z,99205.41
2023-05-15T22:44:18.539Z,99200.38
2023-05-15T22:46:46.583Z,99204.53
2023-05-15T22:49:23.611Z,99207.88
2023-05-15T22:51:55.428Z,99211.19
2023-05-15T22:54:23.630Z,99222.94
2023-05-15T22:56:52.652Z,99226.25
2023-05-15T22:59:21.216Z,99222.00
2023-05-15T23:01:50.402Z,99219.47
2023-05-15T23:04:18.567Z,99222.75
2023-05-15T23:06:46.643Z,99231.88
2023-05-15T23:09:15.983Z,99232.50
2023-05-15T23:11:43.821Z,99231.56
2023-05-15T23:14:11.970Z,99223.13
2023-05-15T23:16:39.868Z,99235.75
2023-05-15T23:19:07.800Z,99229.13
2023-05-15T23:21:36.068Z,99232.63
2023-05-15T23:24:04.099Z,99238.59
2023-05-15T23:26:33.351Z,99212.59
2023-05-15T23:29:01.255Z,99220.97
2023-05-15T23:31:29.212Z,99205.06
2023-05-15T23:33:57.175Z,99205.06
2023-05-15T23:36:24.985Z,99211.03
2023-05-15T23:38:52.912Z,99216.94
2023-05-15T23:41:21.880Z,99213.53
2023-05-15T23:43:51.174Z,99215.13
2023-05-15T23:46:19.164Z,99215.84
2023-05-15T23:48:47.004Z,99207.50
2023-05-15T23:51:14.862Z,99210.66
2023-05-15T23:53:42.786Z,99208.75
2023-05-15T23:56:10.650Z,99200.25
2023-05-15T23:58:38.583Z,99195.31
